Ersov, Russia
Current Conditions -  °F | °C
As of 5:30 PM on Sunday 23 Nov 2014 (Local Time) from UWSS Reporting Station
Clear Clear  
Wind Chill: 20°   Ceiling: Unl
Heat Index: 30°   Visibility: 6mi
Dew Point: 21°   Wind: 13mph
Humidity: 69%   Direction: 40°NE
Pressure: 30.27"   Gusts: 20mph
Location:  51.37°N, 48.3°E
Report Text: UWSS 231430Z 04006G09MPS CAVOK M01/M06 Q1025 300///60 NOSIG RMKQFE755
Loading
Personal Weather Stations






























Interactive Weather Map New forecast layout! Learn more

10-Day Weather Forecast

Advertisements
Track Severe Weather on mobile